Time;durP1;ratioP1;P1;durP2;ratioP2;P2;SDS_P1;SDS_P2;PMS_P1;PMS_P2;Temp;Humidity;BMP_temperature;BMP_pressure;BME280_temperature;BME280_humidity;BME280_pressure;Samples;Min_cycle;Max_cycle;Signal;HPM_P1;HPM_P2
2023/07/24 00:00:40;;;;;;;11.32;5.75;;;16.50;99.90;;;;;;5034838;28;20392;-64
2023/07/24 00:03:06;;;;;;;7.38;5.93;;;16.50;99.90;;;;;;5055185;28;20044;-63
2023/07/24 00:05:32;;;;;;;11.55;6.30;;;16.50;99.90;;;;;;5052475;28;20043;-63
2023/07/24 00:07:57;;;;;;;10.70;6.30;;;16.50;99.90;;;;;;5054873;28;20780;-64
2023/07/24 00:10:23;;;;;;;11.80;5.97;;;16.50;99.90;;;;;;5055357;28;20094;-64
2023/07/24 00:12:49;;;;;;;7.05;6.10;;;16.60;99.90;;;;;;5021427;28;20029;-63
2023/07/24 00:15:15;;;;;;;7.97;5.72;;;16.50;99.90;;;;;;5055725;28;20372;-63
2023/07/24 00:17:40;;;;;;;8.88;5.97;;;16.40;99.90;;;;;;5040892;28;20243;-63
2023/07/24 00:20:07;;;;;;;9.35;6.00;;;16.60;99.90;;;;;;5057108;28;20044;-63
2023/07/24 00:22:32;;;;;;;8.23;6.18;;;16.40;99.90;;;;;;5053316;28;20044;-64
2023/07/24 00:24:58;;;;;;;8.63;5.50;;;16.30;99.90;;;;;;5041920;28;20406;-64
2023/07/24 00:27:23;;;;;;;11.93;6.40;;;16.20;99.90;;;;;;5055205;28;20047;-63
2023/07/24 00:29:49;;;;;;;9.07;5.88;;;16.20;99.90;;;;;;5075532;28;20041;-64
2023/07/24 00:32:15;;;;;;;8.90;5.72;;;16.30;99.90;;;;;;5058071;28;20406;-63
2023/07/24 00:34:40;;;;;;;9.32;6.47;;;16.20;99.90;;;;;;5057032;28;20096;-64
2023/07/24 00:37:07;;;;;;;8.75;5.80;;;16.20;99.90;;;;;;5056932;28;20045;-63
2023/07/24 00:39:32;;;;;;;10.45;6.20;;;16.40;99.90;;;;;;5054934;28;20120;-64
2023/07/24 00:41:58;;;;;;;8.57;6.10;;;16.20;99.90;;;;;;5037084;28;20044;-63
2023/07/24 00:44:24;;;;;;;7.90;5.60;;;16.30;99.90;;;;;;5054569;28;20055;-64
2023/07/24 00:46:50;;;;;;;7.90;6.07;;;16.40;99.90;;;;;;5055948;28;20266;-65
2023/07/24 00:49:17;;;;;;;11.00;6.32;;;16.30;99.90;;;;;;5056406;28;20609;-64
2023/07/24 00:51:44;;;;;;;9.55;6.38;;;16.20;99.90;;;;;;5043738;28;20056;-63
2023/07/24 00:54:11;;;;;;;8.65;6.13;;;16.20;99.90;;;;;;5055443;28;20051;-64
2023/07/24 00:56:37;;;;;;;10.50;6.53;;;16.30;99.90;;;;;;5068056;28;20398;-63
2023/07/24 00:59:03;;;;;;;10.10;6.45;;;16.30;99.90;;;;;;5055082;28;20037;-63
2023/07/24 01:01:29;;;;;;;10.13;6.45;;;16.00;99.90;;;;;;5056021;28;20047;-63
2023/07/24 01:03:56;;;;;;;9.40;6.30;;;16.20;99.90;;;;;;5056181;28;20552;-63
2023/07/24 01:06:23;;;;;;;13.93;6.80;;;16.20;99.90;;;;;;5036992;28;20128;-63
2023/07/24 01:08:49;;;;;;;12.32;6.65;;;16.20;99.90;;;;;;5057257;28;20066;-65
2023/07/24 01:11:33;;;;;;;9.93;6.32;;;16.00;99.90;;;;;;5022045;28;20558;-64
2023/07/24 01:14:10;;;;;;;10.43;6.45;;;16.20;99.90;;;;;;5043578;28;20047;-64
2023/07/24 01:16:42;;;;;;;12.10;6.75;;;16.00;99.90;;;;;;5054647;28;20583;-64
2023/07/24 01:19:40;;;;;;;9.40;6.95;;;15.90;99.90;;;;;;5055078;28;20331;-63
2023/07/24 01:22:12;;;;;;;9.45;7.18;;;15.90;99.90;;;;;;5056687;28;20150;-63
2023/07/24 01:24:59;;;;;;;10.40;7.47;;;15.80;99.90;;;;;;5053785;28;20048;-64
2023/07/24 01:27:26;;;;;;;11.57;7.57;;;15.80;99.90;;;;;;5054532;28;20076;-64
2023/07/24 01:29:51;;;;;;;12.45;7.90;;;16.00;99.90;;;;;;5054303;28;20044;-65
2023/07/24 01:32:18;;;;;;;15.35;8.23;;;16.10;99.90;;;;;;5039574;28;20094;-63
2023/07/24 01:34:44;;;;;;;14.27;8.63;;;15.80;99.90;;;;;;5054687;28;20047;-64
2023/07/24 01:37:12;;;;;;;12.52;8.50;;;15.80;99.90;;;;;;5053442;28;20123;-63
2023/07/24 01:39:40;;;;;;;13.95;8.93;;;16.00;99.90;;;;;;5038630;28;20219;-64
2023/07/24 01:42:06;;;;;;;11.25;8.45;;;16.00;99.90;;;;;;5051930;28;20143;-64
2023/07/24 01:44:31;;;;;;;10.73;8.18;;;15.90;99.90;;;;;;5055097;28;20169;-64
2023/07/24 01:46:57;;;;;;;16.60;9.43;;;15.60;99.90;;;;;;5053462;28;20124;-64
2023/07/24 01:49:23;;;;;;;11.80;8.63;;;15.60;99.90;;;;;;5044001;28;20570;-64
2023/07/24 01:51:48;;;;;;;14.80;9.13;;;15.50;99.90;;;;;;5020509;28;20435;-64
2023/07/24 01:54:14;;;;;;;15.15;9.65;;;15.80;99.90;;;;;;5051075;28;20083;-63
2023/07/24 01:56:40;;;;;;;10.98;8.57;;;15.50;99.90;;;;;;5052906;28;20060;-63
2023/07/24 01:59:06;;;;;;;15.77;10.13;;;15.80;99.90;;;;;;5053833;28;20354;-63
2023/07/24 02:01:31;;;;;;;15.15;9.43;;;15.80;99.90;;;;;;5054129;28;20199;-63
2023/07/24 02:03:57;;;;;;;13.57;9.23;;;15.50;99.90;;;;;;5052303;28;20159;-64
2023/07/24 02:06:23;;;;;;;15.45;9.60;;;15.50;99.90;;;;;;5053695;28;20383;-64
2023/07/24 02:08:51;;;;;;;13.27;10.18;;;15.90;99.90;;;;;;5054447;28;20137;-63
2023/07/24 02:11:17;;;;;;;14.32;10.63;;;15.90;99.90;;;;;;5054940;28;20530;-64
2023/07/24 02:13:46;;;;;;;14.10;10.88;;;15.80;99.90;;;;;;5053422;28;20564;-63
2023/07/24 02:16:13;;;;;;;14.18;11.70;;;15.70;99.90;;;;;;5051649;28;20047;-64
2023/07/24 02:18:41;;;;;;;16.58;11.18;;;15.50;99.90;;;;;;5072673;28;20048;-63
2023/07/24 02:21:07;;;;;;;15.55;12.27;;;16.00;99.90;;;;;;5053833;28;20548;-64
2023/07/24 02:23:32;;;;;;;16.42;12.60;;;15.90;99.90;;;;;;5074122;28;20043;-65
2023/07/24 02:25:58;;;;;;;17.67;12.48;;;15.90;99.90;;;;;;5074800;27;20074;-64
2023/07/24 02:28:24;;;;;;;16.73;11.82;;;15.70;99.90;;;;;;5070032;28;20207;-64
2023/07/24 02:30:51;;;;;;;15.93;12.63;;;15.70;99.90;;;;;;5054813;28;20091;-64
2023/07/24 02:33:17;;;;;;;15.70;12.65;;;15.90;99.90;;;;;;5054910;28;20117;-64
2023/07/24 02:35:43;;;;;;;15.88;12.13;;;15.90;99.90;;;;;;5073795;28;20044;-64
2023/07/24 02:38:09;;;;;;;15.07;12.38;;;16.20;99.90;;;;;;5053475;28;20206;-65
2023/07/24 02:40:36;;;;;;;16.27;12.73;;;16.10;99.90;;;;;;5055027;28;20037;-64
2023/07/24 02:43:01;;;;;;;17.77;13.85;;;16.10;99.90;;;;;;5054826;28;20041;-64
2023/07/24 02:45:27;;;;;;;20.17;14.02;;;16.40;99.90;;;;;;5057839;28;20424;-65
2023/07/24 02:47:53;;;;;;;18.52;14.35;;;15.90;99.90;;;;;;5070528;28;20346;-64
2023/07/24 02:50:18;;;;;;;16.65;13.63;;;15.80;99.90;;;;;;5052349;28;20044;-65
2023/07/24 02:52:44;;;;;;;17.27;14.02;;;15.90;99.90;;;;;;5053630;28;20044;-64
2023/07/24 02:55:10;;;;;;;17.67;14.85;;;16.20;99.90;;;;;;5053624;28;20300;-63
2023/07/24 02:57:35;;;;;;;17.55;15.27;;;15.90;99.90;;;;;;5071217;28;20426;-65
2023/07/24 03:00:01;;;;;;;19.10;15.77;;;15.80;99.90;;;;;;5053188;28;20509;-64
2023/07/24 03:02:27;;;;;;;20.48;15.43;;;15.90;99.90;;;;;;5072590;28;20052;-63
2023/07/24 03:04:52;;;;;;;19.00;16.48;;;15.80;99.90;;;;;;5052716;28;20049;-64
2023/07/24 03:07:18;;;;;;;20.65;15.88;;;16.00;99.90;;;;;;5055304;28;20067;-64
2023/07/24 03:09:44;;;;;;;18.15;15.05;;;16.10;99.90;;;;;;5044637;28;20039;-64
2023/07/24 03:12:11;;;;;;;21.77;16.35;;;15.60;99.90;;;;;;5057978;28;20040;-64
2023/07/24 03:14:36;;;;;;;18.25;15.95;;;16.00;99.90;;;;;;5039054;28;20518;-63
2023/07/24 03:17:02;;;;;;;21.15;17.13;;;15.90;99.90;;;;;;5048698;28;20082;-63
2023/07/24 03:19:28;;;;;;;19.23;16.17;;;16.10;99.90;;;;;;5047687;28;20119;-64
2023/07/24 03:21:53;;;;;;;19.70;15.90;;;16.00;99.90;;;;;;5055536;28;20267;-63
2023/07/24 03:24:19;;;;;;;19.13;16.33;;;16.00;99.90;;;;;;5073839;28;20044;-64
2023/07/24 03:26:45;;;;;;;19.75;16.60;;;15.80;99.90;;;;;;5055592;28;20145;-63
2023/07/24 03:29:10;;;;;;;22.05;16.42;;;16.00;99.90;;;;;;5039461;28;20036;-63
2023/07/24 03:31:36;;;;;;;19.58;16.42;;;16.10;99.90;;;;;;5051777;28;20045;-64
2023/07/24 03:34:02;;;;;;;17.98;15.88;;;16.50;99.90;;;;;;5052416;28;20490;-63
2023/07/24 03:36:27;;;;;;;20.83;15.68;;;16.40;99.90;;;;;;5051211;28;20203;-64
2023/07/24 03:38:53;;;;;;;18.13;15.45;;;16.50;99.90;;;;;;5055105;28;20056;-64
2023/07/24 03:41:19;;;;;;;17.50;14.73;;;16.10;99.90;;;;;;5036694;28;20098;-64
2023/07/24 03:43:44;;;;;;;19.13;15.18;;;16.60;99.90;;;;;;5040239;28;20334;-64
2023/07/24 03:46:13;;;;;;;16.65;14.40;;;16.10;99.90;;;;;;5058769;28;20042;-64
2023/07/24 03:48:38;;;;;;;16.20;13.98;;;16.60;99.90;;;;;;5055209;28;20325;-64
2023/07/24 03:51:04;;;;;;;16.63;14.80;;;16.10;99.90;;;;;;5057932;28;20137;-64
2023/07/24 03:53:30;;;;;;;15.98;14.02;;;16.70;99.90;;;;;;5057965;28;20057;-64
2023/07/24 03:55:55;;;;;;;18.77;13.68;;;16.20;99.90;;;;;;5056290;28;20630;-63
2023/07/24 03:58:21;;;;;;;18.23;13.23;;;16.20;99.90;;;;;;5037354;28;20044;-64
2023/07/24 04:00:47;;;;;;;15.57;12.85;;;16.40;99.90;;;;;;5056308;28;20048;-63
2023/07/24 04:03:12;;;;;;;16.23;12.73;;;16.20;99.90;;;;;;5055335;28;20508;-63
2023/07/24 04:05:38;;;;;;;17.92;12.77;;;16.30;99.90;;;;;;5056041;28;20048;-64
2023/07/24 04:08:04;;;;;;;15.32;11.95;;;16.30;99.90;;;;;;5058989;28;20048;-63
2023/07/24 04:10:30;;;;;;;14.23;11.80;;;16.70;99.90;;;;;;5055822;28;20063;-64
2023/07/24 04:12:57;;;;;;;15.70;10.75;;;16.40;99.90;;;;;;5056749;28;20123;-64
2023/07/24 04:15:23;;;;;;;12.32;11.05;;;16.80;99.90;;;;;;5061694;28;20130;-64
2023/07/24 04:17:48;;;;;;;12.30;10.38;;;16.70;99.90;;;;;;5055467;28;20089;-64
2023/07/24 04:20:14;;;;;;;12.40;10.82;;;16.80;99.90;;;;;;5054951;28;20044;-64
2023/07/24 04:22:41;;;;;;;12.68;10.38;;;16.90;99.90;;;;;;5079171;28;20362;-64
2023/07/24 04:25:07;;;;;;;14.45;10.75;;;16.70;99.90;;;;;;5060002;28;20581;-64
2023/07/24 04:27:32;;;;;;;16.30;10.88;;;16.70;99.90;;;;;;5057981;28;20048;-63
2023/07/24 04:29:58;;;;;;;15.65;11.25;;;16.80;99.90;;;;;;5058325;28;20045;-64
2023/07/24 04:32:27;;;;;;;12.95;10.43;;;16.60;99.90;;;;;;5038772;28;20044;-63
2023/07/24 04:34:53;;;;;;;13.65;10.43;;;16.80;99.90;;;;;;5056849;28;20101;-63
2023/07/24 04:37:18;;;;;;;12.48;10.40;;;16.80;99.90;;;;;;5054804;28;20040;-64
2023/07/24 04:39:44;;;;;;;13.93;10.95;;;16.90;99.90;;;;;;5055443;28;20033;-64
2023/07/24 04:42:10;;;;;;;14.60;11.07;;;17.00;99.90;;;;;;5055447;28;20045;-63
2023/07/24 04:44:36;;;;;;;14.07;10.55;;;16.60;99.90;;;;;;5054220;28;20459;-64
2023/07/24 04:47:02;;;;;;;13.77;9.73;;;16.80;99.90;;;;;;5057862;28;20055;-64
2023/07/24 04:49:32;;;;;;;13.50;10.75;;;16.50;99.90;;;;;;5037895;28;20072;-64
2023/07/24 04:51:59;;;;;;;15.20;10.18;;;17.00;99.90;;;;;;5042655;28;20112;-64
2023/07/24 04:54:25;;;;;;;13.70;10.77;;;16.90;99.90;;;;;;5054239;28;20129;-64
2023/07/24 04:56:51;;;;;;;15.25;10.80;;;17.00;99.90;;;;;;5047397;28;20075;-64
2023/07/24 04:59:17;;;;;;;12.60;11.07;;;16.90;99.90;;;;;;5054007;28;20127;-64
2023/07/24 05:01:42;;;;;;;13.90;10.48;;;16.60;99.90;;;;;;5054544;28;20085;-64
2023/07/24 05:04:08;;;;;;;13.40;11.40;;;16.50;99.90;;;;;;5051018;28;21363;-65
2023/07/24 05:06:35;;;;;;;13.10;11.70;;;16.60;99.90;;;;;;5039347;28;20040;-64
2023/07/24 05:09:01;;;;;;;13.20;11.90;;;16.60;99.90;;;;;;5040036;28;20045;-64
2023/07/24 05:11:27;;;;;;;16.20;11.90;;;17.10;99.90;;;;;;5039691;28;20041;-64
2023/07/24 05:13:53;;;;;;;13.93;12.07;;;16.70;99.90;;;;;;5056178;28;20032;-64
2023/07/24 05:16:19;;;;;;;13.50;12.10;;;17.00;99.90;;;;;;5020897;28;20519;-65
2023/07/24 05:18:44;;;;;;;12.90;11.60;;;16.90;99.90;;;;;;5035033;28;20487;-64
2023/07/24 05:21:10;;;;;;;15.35;11.80;;;16.80;99.90;;;;;;5037568;28;20037;-64
2023/07/24 05:23:36;;;;;;;13.30;11.82;;;16.90;99.90;;;;;;5044036;28;20048;-64
2023/07/24 05:26:03;;;;;;;14.63;11.63;;;17.00;99.90;;;;;;5074997;28;20402;-64
2023/07/24 05:28:31;;;;;;;13.32;11.65;;;17.20;99.90;;;;;;5044399;28;20039;-64
2023/07/24 05:31:03;;;;;;;12.80;11.10;;;16.90;99.90;;;;;;5054492;28;20052;-63
2023/07/24 05:33:30;;;;;;;12.98;10.82;;;16.90;99.90;;;;;;5051122;28;20042;-64
2023/07/24 05:35:59;;;;;;;14.38;11.05;;;17.30;99.90;;;;;;5056605;28;20105;-65
2023/07/24 05:38:26;;;;;;;12.73;11.35;;;16.90;99.90;;;;;;5054632;28;20052;-64
2023/07/24 05:40:55;;;;;;;12.82;10.88;;;17.20;99.90;;;;;;5055248;28;20331;-64
2023/07/24 05:43:22;;;;;;;11.90;10.63;;;17.40;99.90;;;;;;5051430;28;20131;-64
2023/07/24 05:45:49;;;;;;;12.02;10.45;;;17.00;99.90;;;;;;5038129;28;20101;-64
2023/07/24 05:48:14;;;;;;;13.02;11.05;;;17.00;99.90;;;;;;5042178;28;20448;-63
2023/07/24 05:50:41;;;;;;;12.77;10.48;;;17.10;99.90;;;;;;5053404;28;20044;-65
2023/07/24 05:53:07;;;;;;;11.32;10.13;;;17.10;99.90;;;;;;5055593;28;20302;-64
2023/07/24 05:55:33;;;;;;;11.98;10.13;;;17.20;99.90;;;;;;5053990;28;20040;-64
2023/07/24 05:57:58;;;;;;;13.40;10.32;;;17.30;99.90;;;;;;5054576;28;20044;-64
2023/07/24 06:00:24;;;;;;;13.23;11.13;;;17.50;99.90;;;;;;5054747;28;20068;-64
2023/07/24 06:02:50;;;;;;;12.20;10.43;;;17.70;99.90;;;;;;5055743;28;20331;-64
2023/07/24 06:05:15;;;;;;;13.98;10.18;;;17.70;99.90;;;;;;5053486;28;20033;-65
2023/07/24 06:07:41;;;;;;;13.07;10.43;;;17.40;99.90;;;;;;5039377;28;20239;-64
2023/07/24 06:10:07;;;;;;;12.32;10.48;;;17.70;99.90;;;;;;5053513;28;20242;-65
2023/07/24 06:12:33;;;;;;;11.30;10.20;;;17.50;99.90;;;;;;5050425;28;20032;-64
2023/07/24 06:14:58;;;;;;;13.63;10.05;;;17.60;99.90;;;;;;5049944;28;20036;-65
2023/07/24 06:17:24;;;;;;;12.00;10.65;;;17.60;99.90;;;;;;5054144;28;20313;-64
2023/07/24 06:19:50;;;;;;;11.82;10.05;;;17.50;99.90;;;;;;5039371;28;20049;-64
2023/07/24 06:22:15;;;;;;;10.80;9.70;;;17.80;99.90;;;;;;5053371;28;20044;-64
2023/07/24 06:24:41;;;;;;;12.30;10.32;;;17.70;99.90;;;;;;5038018;28;20036;-64
2023/07/24 06:27:07;;;;;;;11.00;9.38;;;17.70;99.90;;;;;;5052184;28;20095;-64
2023/07/24 06:29:33;;;;;;;13.30;9.63;;;17.90;99.90;;;;;;5053298;28;20115;-64
2023/07/24 06:31:59;;;;;;;10.65;9.23;;;17.60;99.90;;;;;;5054156;28;20040;-63
2023/07/24 06:34:24;;;;;;;10.98;9.35;;;18.00;99.90;;;;;;5053573;28;20413;-63
2023/07/24 06:36:50;;;;;;;11.02;9.07;;;18.00;99.90;;;;;;5036950;28;20101;-63
2023/07/24 06:39:16;;;;;;;10.48;8.88;;;18.40;99.90;;;;;;5020615;28;20044;-63
2023/07/24 06:41:42;;;;;;;12.23;9.50;;;18.70;99.90;;;;;;5038616;28;20036;-63
2023/07/24 06:44:07;;;;;;;9.77;8.77;;;19.00;99.90;;;;;;5039985;28;20050;-63
2023/07/24 06:46:33;;;;;;;9.15;7.88;;;19.20;99.90;;;;;;5018403;28;20048;-63
2023/07/24 06:48:59;;;;;;;8.80;7.90;;;19.00;99.90;;;;;;5059283;28;20091;-63
2023/07/24 06:51:24;;;;;;;8.95;8.05;;;18.90;99.90;;;;;;5036725;28;20165;-63
2023/07/24 06:53:50;;;;;;;9.05;8.10;;;19.20;99.90;;;;;;5019049;28;21246;-64
2023/07/24 06:56:15;;;;;;;11.15;8.68;;;19.00;99.90;;;;;;5056756;28;20562;-63
2023/07/24 06:58:41;;;;;;;8.95;8.15;;;18.70;99.90;;;;;;5075932;28;20123;-64
2023/07/24 07:01:07;;;;;;;10.10;8.70;;;18.60;99.90;;;;;;5056038;28;20442;-64
2023/07/24 07:03:36;;;;;;;9.73;7.75;;;18.70;99.90;;;;;;5041372;28;20036;-65
2023/07/24 07:06:03;;;;;;;10.85;8.40;;;18.70;99.90;;;;;;5037560;28;20095;-63
2023/07/24 07:08:31;;;;;;;9.35;7.93;;;18.60;99.90;;;;;;5056012;28;20063;-63
2023/07/24 07:11:00;;;;;;;9.02;8.02;;;18.40;99.90;;;;;;5037368;28;20109;-63
2023/07/24 07:13:26;;;;;;;10.07;7.50;;;18.50;99.90;;;;;;5055153;28;20539;-63
2023/07/24 07:15:55;;;;;;;9.05;7.57;;;19.10;99.90;;;;;;5054568;28;20131;-63
2023/07/24 07:18:27;;;;;;;8.20;7.22;;;19.20;99.90;;;;;;5058437;28;20158;-64
2023/07/24 07:20:53;;;;;;;8.82;6.32;;;19.70;99.90;;;;;;5058834;28;20308;-64
2023/07/24 07:23:20;;;;;;;7.47;6.65;;;20.00;99.90;;;;;;5058542;28;20505;-64
2023/07/24 07:25:46;;;;;;;10.25;6.63;;;20.10;99.90;;;;;;5060133;28;20108;-63
2023/07/24 07:28:16;;;;;;;8.13;6.80;;;20.30;99.90;;;;;;5057394;28;20447;-64
2023/07/24 07:30:42;;;;;;;8.27;6.35;;;20.40;99.90;;;;;;5079437;28;20040;-63
2023/07/24 07:33:08;;;;;;;7.65;6.28;;;20.50;99.90;;;;;;5045440;28;20162;-64
2023/07/24 07:35:35;;;;;;;7.50;6.45;;;20.70;99.90;;;;;;5040225;28;20072;-62
2023/07/24 07:38:02;;;;;;;7.47;5.40;;;20.70;99.90;;;;;;5056398;28;20044;-63
2023/07/24 07:40:28;;;;;;;7.82;6.13;;;20.80;99.90;;;;;;5056380;28;20695;-64
2023/07/24 07:42:55;;;;;;;8.07;5.88;;;20.70;99.90;;;;;;5071647;28;20066;-64
2023/07/24 07:45:21;;;;;;;11.65;6.50;;;21.00;99.90;;;;;;5057201;28;20589;-65
2023/07/24 07:47:47;;;;;;;7.93;6.07;;;21.10;99.90;;;;;;5059574;28;20307;-64
2023/07/24 07:50:13;;;;;;;11.93;6.63;;;21.00;99.90;;;;;;5057245;28;20518;-64
2023/07/24 07:52:39;;;;;;;8.13;6.40;;;20.60;99.90;;;;;;5024595;28;20189;-64
2023/07/24 07:55:08;;;;;;;11.93;6.50;;;20.30;99.90;;;;;;5079086;28;20310;-64
2023/07/24 07:57:35;;;;;;;10.27;6.60;;;20.00;99.90;;;;;;5054518;28;20040;-63
2023/07/24 08:00:02;;;;;;;9.07;6.80;;;20.00;99.90;;;;;;5039500;28;20049;-64
2023/07/24 08:02:28;;;;;;;7.60;6.20;;;19.90;99.90;;;;;;5074383;28;20048;-66
2023/07/24 08:04:54;;;;;;;7.75;5.93;;;19.80;99.90;;;;;;5037943;28;20136;-65
2023/07/24 08:07:19;;;;;;;9.88;6.93;;;19.90;99.90;;;;;;5040421;28;20041;-65
2023/07/24 08:09:46;;;;;;;10.18;7.75;;;19.80;99.90;;;;;;5043905;28;20040;-65
2023/07/24 08:12:12;;;;;;;9.18;7.38;;;19.50;99.90;;;;;;5057085;28;20871;-66
2023/07/24 08:14:38;;;;;;;9.35;7.07;;;19.60;99.90;;;;;;5037377;28;20097;-65
2023/07/24 08:17:04;;;;;;;11.98;7.60;;;19.50;99.90;;;;;;5057596;28;20644;-64
2023/07/24 08:19:30;;;;;;;9.68;7.32;;;19.40;99.90;;;;;;5044939;28;20031;-63
2023/07/24 08:21:56;;;;;;;11.38;7.45;;;19.40;99.90;;;;;;5058298;28;20044;-65
2023/07/24 08:24:21;;;;;;;10.20;7.05;;;19.50;99.90;;;;;;5045419;28;20656;-66
2023/07/24 08:26:47;;;;;;;14.80;8.20;;;19.40;99.90;;;;;;5046386;28;20705;-64
2023/07/24 08:29:13;;;;;;;10.63;7.55;;;19.40;99.90;;;;;;5058789;28;20060;-65
2023/07/24 08:31:39;;;;;;;11.20;7.95;;;19.50;99.90;;;;;;5041440;28;20063;-64
2023/07/24 08:34:04;;;;;;;10.10;7.60;;;19.50;99.90;;;;;;5054963;28;20047;-65
2023/07/24 08:36:32;;;;;;;11.40;7.47;;;19.50;99.90;;;;;;5041199;28;20036;-66
2023/07/24 08:39:04;;;;;;;12.40;7.32;;;19.50;99.90;;;;;;5038585;28;20080;-64
2023/07/24 08:41:34;;;;;;;11.57;7.60;;;19.40;99.90;;;;;;5039579;28;20124;-65
2023/07/24 08:44:00;;;;;;;13.38;7.40;;;19.60;99.90;;;;;;5058005;28;20055;-65
2023/07/24 08:46:27;;;;;;;11.57;7.72;;;19.60;99.90;;;;;;5038745;28;20564;-64
2023/07/24 08:48:54;;;;;;;12.93;7.50;;;19.50;99.90;;;;;;5054232;28;20044;-66
2023/07/24 08:51:24;;;;;;;21.90;8.80;;;19.50;99.90;;;;;;5054475;28;20059;-65
2023/07/24 08:53:50;;;;;;;12.63;7.57;;;19.50;99.90;;;;;;5052927;28;20584;-65
2023/07/24 08:56:15;;;;;;;19.27;8.98;;;19.50;99.90;;;;;;5053645;28;20328;-65
2023/07/24 08:58:42;;;;;;;15.35;8.48;;;19.50;99.90;;;;;;5037081;28;20229;-64
2023/07/24 09:01:08;;;;;;;10.02;6.68;;;19.50;99.90;;;;;;5053202;28;20323;-66
2023/07/24 09:03:35;;;;;;;11.48;6.78;;;19.50;99.90;;;;;;5038963;28;20028;-65
2023/07/24 09:06:01;;;;;;;9.85;6.38;;;19.50;99.90;;;;;;5072384;28;20079;-65
2023/07/24 09:08:33;;;;;;;12.43;6.65;;;19.40;99.90;;;;;;5052545;28;20297;-64
2023/07/24 09:11:00;;;;;;;9.27;5.60;;;19.40;99.90;;;;;;5072609;28;20044;-65
2023/07/24 09:13:26;;;;;;;12.60;6.65;;;19.50;99.90;;;;;;5072431;28;20042;-65
2023/07/24 09:15:53;;;;;;;9.52;5.68;;;19.60;99.90;;;;;;5078736;28;20036;-65
2023/07/24 09:18:19;;;;;;;9.82;5.97;;;19.70;99.90;;;;;;5053697;28;20160;-67
2023/07/24 09:20:45;;;;;;;8.93;5.35;;;20.00;99.90;;;;;;5038416;28;20055;-65
2023/07/24 09:23:12;;;;;;;12.50;5.65;;;20.00;99.90;;;;;;5044933;28;20713;-65
2023/07/24 09:25:40;;;;;;;9.48;5.65;;;19.90;99.90;;;;;;5037961;28;20047;-64
2023/07/24 09:28:10;;;;;;;9.90;5.85;;;20.00;99.90;;;;;;5034911;28;20032;-64
2023/07/24 09:30:36;;;;;;;11.27;5.30;;;19.90;99.90;;;;;;5057512;28;20037;-65
2023/07/24 09:33:02;;;;;;;10.13;5.78;;;19.90;99.90;;;;;;5054518;28;20051;-65
2023/07/24 09:35:28;;;;;;;12.48;5.63;;;20.00;99.90;;;;;;5056859;28;20950;-65
2023/07/24 09:38:08;;;;;;;9.48;5.60;;;20.00;99.90;;;;;;5019623;28;20147;-66
2023/07/24 09:40:38;;;;;;;11.77;5.93;;;20.00;99.90;;;;;;5076305;28;20116;-66
2023/07/24 09:43:16;;;;;;;10.20;5.65;;;20.10;99.90;;;;;;5068308;28;20105;-65
2023/07/24 09:45:44;;;;;;;14.63;6.20;;;20.30;99.90;;;;;;5053906;28;20052;-65
2023/07/24 09:48:14;;;;;;;10.90;5.47;;;20.50;99.90;;;;;;5040169;28;20486;-64
2023/07/24 09:50:42;;;;;;;8.55;5.53;;;20.80;99.90;;;;;;5056304;28;20510;-64
2023/07/24 09:53:13;;;;;;;10.70;5.82;;;20.90;99.90;;;;;;5040312;28;20125;-64
2023/07/24 09:55:53;;;;;;;9.10;5.82;;;20.90;99.90;;;;;;5057327;28;20052;-65
2023/07/24 09:58:21;;;;;;;9.90;5.78;;;21.10;99.90;;;;;;5047315;28;20146;-65
2023/07/24 10:00:49;;;;;;;9.90;5.65;;;21.40;99.90;;;;;;5060911;28;20468;-64
2023/07/24 10:03:16;;;;;;;9.05;5.10;;;22.10;99.90;;;;;;5061210;28;20044;-64
2023/07/24 10:05:45;;;;;;;11.13;5.93;;;22.40;99.90;;;;;;5062544;28;20125;-65
2023/07/24 10:08:12;;;;;;;9.05;5.45;;;22.50;99.90;;;;;;5060130;28;20403;-64
2023/07/24 10:10:41;;;;;;;9.88;5.93;;;22.50;99.90;;;;;;5058166;28;20127;-64
2023/07/24 10:13:10;;;;;;;11.05;6.70;;;22.00;99.90;;;;;;5058506;28;20456;-64
2023/07/24 10:15:37;;;;;;;12.05;6.40;;;21.80;99.90;;;;;;5057495;28;20294;-65
2023/07/24 10:18:07;;;;;;;12.95;6.35;;;21.70;99.90;;;;;;5040713;28;20521;-64
2023/07/24 10:20:39;;;;;;;17.42;8.05;;;21.60;99.90;;;;;;5060129;28;20545;-65
2023/07/24 10:23:06;;;;;;;14.40;7.30;;;21.30;99.90;;;;;;5078892;28;20131;-64
2023/07/24 10:25:34;;;;;;;12.38;8.98;;;20.90;99.90;;;;;;5056748;28;20036;-65
2023/07/24 10:28:07;;;;;;;14.40;9.35;;;20.80;99.90;;;;;;5056070;28;20524;-64
2023/07/24 10:30:37;;;;;;;10.80;7.90;;;21.40;99.90;;;;;;5053563;28;20605;-65
2023/07/24 10:33:07;;;;;;;11.57;7.72;;;21.80;99.90;;;;;;5055941;28;20119;-64
2023/07/24 10:35:47;;;;;;;12.32;8.02;;;21.80;99.90;;;;;;5080649;28;20139;-65
2023/07/24 10:38:16;;;;;;;10.75;6.93;;;21.80;99.90;;;;;;5070545;28;20134;-66
2023/07/24 10:40:45;;;;;;;8.90;6.53;;;21.90;99.90;;;;;;5042307;28;20048;-65
2023/07/24 10:43:12;;;;;;;9.90;5.93;;;22.20;99.90;;;;;;5054755;28;20040;-63
2023/07/24 10:45:52;;;;;;;8.20;5.53;;;22.80;99.90;;;;;;5053008;28;20135;-64
2023/07/24 10:48:20;;;;;;;7.78;5.60;;;23.40;99.90;;;;;;5039128;28;20205;-64
2023/07/24 10:50:48;;;;;;;7.68;5.18;;;23.20;99.90;;;;;;5051672;28;20044;-65
2023/07/24 10:53:16;;;;;;;6.93;5.25;;;23.10;99.90;;;;;;5039910;28;20441;-65
2023/07/24 10:55:42;;;;;;;8.80;5.50;;;22.70;99.90;;;;;;5049414;28;20083;-66
2023/07/24 10:58:10;;;;;;;8.57;6.03;;;22.80;99.90;;;;;;5055252;28;20444;-65
2023/07/24 11:00:35;;;;;;;8.73;5.40;;;23.10;99.90;;;;;;5036481;28;20040;-66
2023/07/24 11:03:02;;;;;;;5.25;1.92;;;23.60;99.90;;;;;;5053397;28;20121;-64
2023/07/24 11:05:28;;;;;;;2.95;1.25;;;23.10;99.90;;;;;;5054685;28;20048;-65
2023/07/24 11:07:55;;;;;;;4.75;1.00;;;22.90;99.90;;;;;;5072566;28;20055;-65
2023/07/24 11:10:24;;;;;;;5.70;1.20;;;22.20;99.90;;;;;;5072030;28;20040;-65
2023/07/24 11:12:53;;;;;;;2.95;1.00;;;20.90;99.90;;;;;;5053664;28;20036;-64
2023/07/24 11:15:29;;;;;;;3.50;1.00;;;20.80;99.90;;;;;;5066483;28;20146;-65
2023/07/24 11:17:59;;;;;;;4.20;1.05;;;20.60;99.90;;;;;;5054500;28;20051;-65
2023/07/24 11:20:26;;;;;;;5.22;1.17;;;20.40;99.90;;;;;;5055293;28;20430;-66
2023/07/24 11:22:57;;;;;;;3.28;1.20;;;20.30;99.90;;;;;;5070468;28;20566;-66
2023/07/24 11:25:25;;;;;;;5.63;2.13;;;20.30;99.90;;;;;;5053304;28;20052;-65
2023/07/24 11:27:51;;;;;;;3.95;1.95;;;20.20;99.90;;;;;;5035010;28;20047;-65
2023/07/24 11:30:21;;;;;;;3.78;2.50;;;20.30;99.90;;;;;;5036398;28;20094;-66
2023/07/24 11:32:48;;;;;;;5.82;2.30;;;20.30;99.90;;;;;;5053851;28;20055;-66
2023/07/24 11:35:14;;;;;;;6.20;2.50;;;20.20;99.90;;;;;;5053492;28;20578;-65
2023/07/24 11:37:40;;;;;;;4.93;2.80;;;20.10;99.90;;;;;;5052101;28;20127;-65
2023/07/24 11:40:10;;;;;;;5.07;2.50;;;20.10;99.90;;;;;;5050730;28;20465;-65
2023/07/24 11:42:40;;;;;;;4.72;2.97;;;20.10;99.90;;;;;;5054618;28;20342;-65
2023/07/24 11:45:09;;;;;;;6.60;3.13;;;20.00;99.90;;;;;;5054323;28;20048;-66
2023/07/24 11:47:46;;;;;;;6.88;4.10;;;20.10;99.90;;;;;;5053585;28;20040;-66
2023/07/24 11:50:12;;;;;;;6.40;4.00;;;20.30;99.90;;;;;;5034821;28;20032;-64
2023/07/24 11:52:46;;;;;;;5.50;3.97;;;20.50;99.90;;;;;;5052195;28;20055;-66
2023/07/24 11:55:18;;;;;;;6.18;4.03;;;20.80;99.90;;;;;;5051920;28;20052;-66
2023/07/24 11:58:05;;;;;;;7.88;3.88;;;21.10;99.90;;;;;;5054240;28;20048;-65
2023/07/24 12:00:33;;;;;;;6.30;3.17;;;21.40;99.90;;;;;;5051465;28;20052;-65
2023/07/24 12:03:00;;;;;;;5.53;2.88;;;21.50;99.90;;;;;;5054109;28;20113;-64
2023/07/24 12:05:26;;;;;;;5.00;2.70;;;21.40;99.90;;;;;;5042986;28;20461;-65
2023/07/24 12:07:54;;;;;;;6.10;3.20;;;21.30;99.90;;;;;;5057475;28;20048;-64
2023/07/24 12:10:27;;;;;;;5.15;3.17;;;21.20;99.90;;;;;;5047383;28;20036;-65
2023/07/24 12:12:54;;;;;;;6.53;3.45;;;21.10;99.90;;;;;;5055883;28;20829;-65
2023/07/24 12:15:20;;;;;;;4.18;3.42;;;21.10;99.90;;;;;;5043928;28;20054;-66
2023/07/24 12:17:45;;;;;;;5.50;3.42;;;21.30;99.90;;;;;;5057232;28;20037;-66
2023/07/24 12:20:11;;;;;;;6.63;4.57;;;21.30;99.90;;;;;;5056035;28;20048;-65
2023/07/24 12:22:38;;;;;;;6.47;4.47;;;21.50;99.90;;;;;;5059529;28;20382;-65
2023/07/24 12:25:05;;;;;;;7.35;4.22;;;21.80;99.90;;;;;;5058009;28;20041;-64
2023/07/24 12:27:31;;;;;;;4.57;3.17;;;22.40;99.90;;;;;;5044272;28;20044;-64
2023/07/24 12:29:58;;;;;;;4.38;2.95;;;22.70;99.90;;;;;;5055279;28;20358;-65
2023/07/24 12:32:24;;;;;;;5.60;3.22;;;22.50;99.90;;;;;;5042694;28;20550;-64
2023/07/24 12:34:51;;;;;;;4.53;2.53;;;22.60;99.90;;;;;;5055830;28;20036;-64
2023/07/24 12:37:20;;;;;;;5.38;2.85;;;22.50;99.90;;;;;;5053137;28;20060;-64